Terminal Aerodrome Forecast
Issued by NWS

Home | Current Version | Previous Version | Text Only | Print | Product List | Glossary On
Versions: 1 2 3 4 5 6 7 8 9 10 11 12 13 14 15 16 17 18
000
FTUS44 KCRP 240739 AAA
TAFALI
TAF AMD
KALI 240739Z 2408/2506 17005KT 5SM BR SCT005
     FM241000 21004KT 1SM BR BKN004
      TEMPO 2410/2414 1/2SM FG OVC002
     FM241500 33012KT P6SM SCT012
     FM241700 34015G21KT P6SM SKC
     FM250000 35007KT P6SM SKC=

USA.gov is the U.S. government's official web portal to all federal, state and local government web resources and services.